CheckWX is a tool to help pilots better visualize weather data.  It is not intended as a substitute for an official pre-flight weather briefing.

10:23:35 UTC

3LF METAR
Litchfield Municipal Airport
Litchfield, Illinois, USA
Current

9 mins ago

K3LF 261015Z AUTO 03006KT 10SM SCT046 M01/M05 A3037 RMK AO2 T10061053
Observed
Mar-26 @ 10:15 UTC
Wind
  • 030° at 6 KTS
Visibility
10 SM
Flight Rules
VFR
Cloud Levels
  • Scattered at 4,600' AGL
Temperature
-1°C / 30°F
Dewpoint
-5°C / 23°F
Humidity
75%
Altimeter
30.37" Hg
Pressure
1028.42 hPa
Previous

29 mins ago

K3LF 260955Z AUTO 03008KT 10SM BKN044 00/M05 A3036 RMK AO2 T10051050
Observed
Mar-26 @ 09:55 UTC
Wind
  • 030° at 8 KTS
Visibility
10 SM
Flight Rules
VFR
Cloud Levels
  • Broken at 4,400' AGL
Temperature
-1°C / 30°F
Dewpoint
-5°C / 23°F
Humidity
75%
Altimeter
30.36" Hg
Pressure
1028.12 hPa
Previous

49 mins ago

K3LF 260935Z AUTO 02007KT 10SM BKN044 00/M05 A3036 RMK AO2 T10051050
Observed
Mar-26 @ 09:35 UTC
Wind
  • 020° at 7 KTS
Visibility
10 SM
Flight Rules
VFR
Cloud Levels
  • Broken at 4,400' AGL
Temperature
-1°C / 30°F
Dewpoint
-5°C / 23°F
Humidity
75%
Altimeter
30.36" Hg
Pressure
1028.12 hPa